Time;durP1;ratioP1;P1;durP2;ratioP2;P2;SDS_P1;SDS_P2;PMS_P1;PMS_P2;Temp;Humidity;BMP_temperature;BMP_pressure;BME280_temperature;BME280_humidity;BME280_pressure;Samples;Min_cycle;Max_cycle;Signal;HPM_P1;HPM_P2
2021/08/21 03:02:47;;;;;;;;;;;15.60;99.90;;;;;;5;36055866;41314235;-90
2021/08/21 03:06:01;;;;;;;;;;;15.60;99.90;;;;;;5;36021043;41272155;-90
2021/08/21 03:09:19;;;;;;;;;;;15.50;99.90;;;;;;5;36019031;41273618;-90
2021/08/21 03:12:38;;;;;;;;;;;15.50;99.90;;;;;;5;36018840;41271685;-91
2021/08/21 03:15:58;;;;;;;;;;;14.70;99.90;;;;;;5;36016896;41270409;-91
2021/08/21 03:19:13;;;;;;;;;;;15.40;99.90;;;;;;5;36017793;41271581;-90
2021/08/21 03:22:32;;;;;;;;;;;14.80;99.90;;;;;;5;36017222;42017889;-90
2021/08/21 03:25:51;;;;;;;;;;;15.30;99.90;;;;;;5;36018061;41270706;-91
2021/08/21 03:29:11;;;;;;;;;;;15.20;99.90;;;;;;5;36016420;41271338;-89
2021/08/21 03:32:25;;;;;;;;;;;15.20;99.90;;;;;;5;36018358;41270463;-91
2021/08/21 03:35:43;;;;;;;;;;;15.20;99.90;;;;;;5;36015633;41271713;-91
2021/08/21 03:39:03;;;;;;;;;;;15.00;99.90;;;;;;5;36018091;41270986;-91
2021/08/21 03:42:22;;;;;;;;;;;15.10;99.90;;;;;;5;36017654;41269296;-91
2021/08/21 03:45:40;;;;;;;;;;;15.00;99.90;;;;;;5;36016861;41271203;-90
2021/08/21 03:48:57;;;;;;;;;;;15.00;99.90;;;;;;5;36017319;41271476;-89
2021/08/21 03:52:17;;;;;;;;;;;14.90;99.90;;;;;;5;36018795;41271259;-90
2021/08/21 03:55:38;;;;;;;;;;;15.10;99.90;;;;;;5;36017014;42018948;-89
2021/08/21 03:58:52;;;;;;;;;;;15.10;99.90;;;;;;5;36018641;41271519;-91
2021/08/21 04:02:10;;;;;;;;;;;15.20;99.90;;;;;;5;36018325;41271324;-92
2021/08/21 04:05:29;;;;;;;;;;;14.60;99.90;;;;;;5;36017632;41271347;-90
2021/08/21 04:08:49;;;;;;;;;;;15.20;99.90;;;;;;5;36019265;41271198;-92
2021/08/21 04:12:03;;;;;;;;;;;15.20;99.90;;;;;;5;36017306;41272600;-91
2021/08/21 04:15:23;;;;;;;;;;;15.10;99.90;;;;;;5;36017592;41270240;-91
2021/08/21 04:18:45;;;;;;;;;;;15.10;99.90;;;;;;5;36016991;41272835;-91
2021/08/21 04:22:07;;;;;;;;;;;15.00;99.90;;;;;;5;36015665;41269904;-92
2021/08/21 04:25:24;;;;;;;;;;;15.00;99.90;;;;;;5;36016215;41269709;-92
2021/08/21 04:28:46;;;;;;;;;;;15.10;99.90;;;;;;5;36015561;42020468;-92
2021/08/21 04:32:06;;;;;;;;;;;15.10;99.90;;;;;;5;36017137;41272102;-91
2021/08/21 04:35:25;;;;;;;;;;;15.10;99.90;;;;;;5;36018123;41269790;-91
2021/08/21 04:38:42;;;;;;;;;;;15.00;99.90;;;;;;5;36017203;41271266;-91
2021/08/21 04:41:59;;;;;;;;;;;15.10;99.90;;;;;;5;36016941;41270797;-91
2021/08/21 04:45:21;;;;;;;;;;;15.10;99.90;;;;;;5;36017484;41270117;-92
2021/08/21 04:48:41;;;;;;;;;;;15.10;99.90;;;;;;5;36016624;41270164;-92
2021/08/21 04:52:01;;;;;;;;;;;15.30;99.90;;;;;;5;36017875;41268604;-92
2021/08/21 04:55:24;;;;;;;;;;;15.20;99.90;;;;;;5;36015668;41270921;-92
2021/08/21 04:58:43;;;;;;;;;;;15.20;99.90;;;;;;5;36017411;41270080;-91
2021/08/21 05:02:04;;;;;;;;;;;15.40;99.90;;;;;;5;36017324;42019657;-90
2021/08/21 05:05:19;;;;;;;;;;;15.30;99.90;;;;;;5;36017109;41271160;-91
2021/08/21 05:08:36;;;;;;;;;;;15.00;99.90;;;;;;5;36016377;41268624;-91
2021/08/21 05:11:58;;;;;;;;;;;15.50;99.90;;;;;;5;36016719;41270316;-92
2021/08/21 05:15:20;;;;;;;;;;;15.50;99.90;;;;;;5;36015797;41270607;-92
2021/08/21 05:18:39;;;;;;;;;;;15.60;99.90;;;;;;5;36017475;41269303;-93
2021/08/21 05:21:58;;;;;;;;;;;15.90;99.90;;;;;;5;36015540;41271207;-92
2021/08/21 05:25:18;;;;;;;;;;;15.90;99.90;;;;;;5;36014483;41268425;-91
2021/08/21 05:28:37;;;;;;;;;;;15.80;99.90;;;;;;5;36016473;41269746;-90
2021/08/21 05:31:54;;;;;;;;;;;15.90;99.90;;;;;;5;36016705;41269928;-92
2021/08/21 05:35:12;;;;;;;;;;;16.00;99.90;;;;;;5;36016969;42018498;-91
2021/08/21 05:38:32;;;;;;;;;;;16.10;99.90;;;;;;5;36015075;41269992;-91
2021/08/21 05:41:57;;;;;;;;;;;16.20;99.90;;;;;;5;36013629;41267975;-90
2021/08/21 05:45:11;;;;;;;;;;;16.40;99.90;;;;;;5;36016562;41268577;-91
2021/08/21 05:48:28;;;;;;;;;;;16.40;99.90;;;;;;5;36017163;41268603;-91
2021/08/21 05:51:48;;;;;;;;;;;16.60;99.90;;;;;;5;36015764;41269872;-92
2021/08/21 05:55:08;;;;;;;;;;;16.10;99.90;;;;;;5;36016424;41268701;-91
2021/08/21 05:58:22;;;;;;;;;;;16.50;99.90;;;;;;5;36016626;41267567;-93
2021/08/21 06:01:39;;;;;;;;;;;17.00;99.90;;;;;;5;36016540;41268067;-92
2021/08/21 06:04:59;;;;;;;;;;;17.00;99.90;;;;;;5;36017013;41268968;-92
2021/08/21 06:08:20;;;;;;;;;;;17.30;99.90;;;;;;5;36017649;42018200;-90
2021/08/21 06:11:37;;;;;;;;;;;17.50;99.90;;;;;;5;36015282;41269317;-91
2021/08/21 06:14:57;;;;;;;;;;;17.70;99.90;;;;;;5;36013159;41268557;-91
2021/08/21 06:18:25;;;;;;;;;;;17.90;99.90;;;;;;5;36013663;41266900;-93
2021/08/21 06:21:47;;;;;;;;;;;18.20;99.90;;;;;;5;36013103;41265776;-94
2021/08/21 06:25:06;;;;;;;;;;;18.40;99.90;;;;;;5;36014797;41267807;-93
2021/08/21 06:28:26;;;;;;;;;;;18.30;99.90;;;;;;5;36015498;41269108;-93
2021/08/21 06:31:55;;;;;;;;;;;18.70;99.90;;;;;;5;36015653;41268086;-92
2021/08/21 06:35:41;;;;;;;;;;;18.90;99.90;;;;;;5;36016256;41268152;-93
2021/08/21 06:38:55;;;;;;;;;;;18.50;99.90;;;;;;5;36016399;41268571;-91
2021/08/21 06:42:17;;;;;;;;;;;19.10;99.90;;;;;;5;36017220;42022799;-92
2021/08/21 06:45:37;;;;;;;;;;;18.80;99.90;;;;;;5;36016341;41272192;-90
2021/08/21 06:48:56;;;;;;;;;;;19.40;99.90;;;;;;5;36017651;41269737;-91
2021/08/21 06:52:11;;;;;;;;;;;19.60;99.90;;;;;;5;36017409;41270386;-91
2021/08/21 06:55:29;;;;;;;;;;;19.60;99.90;;;;;;5;36014806;41270423;-92
2021/08/21 06:58:48;;;;;;;;;;;19.80;99.90;;;;;;5;36017628;41269053;-91
2021/08/21 07:02:12;;;;;;;;;;;20.10;99.90;;;;;;5;36016828;41269215;-91
2021/08/21 07:05:27;;;;;;;;;;;20.30;99.90;;;;;;5;36017390;41267780;-92
2021/08/21 07:12:38;;;;;;;;;;;20.60;99.90;;;;;;5;36015679;41268839;-92
2021/08/21 07:15:59;;;;;;;;;;;20.50;99.90;;;;;;5;36016762;42021035;-90
2021/08/21 07:19:13;;;;;;;;;;;21.10;99.90;;;;;;5;36020023;41271159;-89
2021/08/21 07:22:30;;;;;;;;;;;20.70;99.90;;;;;;5;36016610;41269276;-90
2021/08/21 07:25:50;;;;;;;;;;;21.60;99.90;;;;;;5;36016141;41271121;-90
2021/08/21 07:29:12;;;;;;;;;;;22.00;98.50;;;;;;5;36016876;41271946;-91
2021/08/21 07:32:26;;;;;;;;;;;22.30;97.10;;;;;;5;36018450;41271208;-90
2021/08/21 07:35:44;;;;;;;;;;;23.40;94.30;;;;;;5;36019152;41271155;-90
2021/08/21 07:39:03;;;;;;;;;;;24.90;91.60;;;;;;5;36018552;41270869;-90
2021/08/21 07:42:23;;;;;;;;;;;26.60;81.10;;;;;;5;36016096;41273231;-92
2021/08/21 07:45:37;;;;;;;;;;;29.00;73.70;;;;;;5;36019840;41270752;-92
2021/08/21 07:48:56;;;;;;;;;;;30.50;66.80;;;;;;5;36018897;42020417;-90
2021/08/21 07:52:15;;;;;;;;;;;32.10;62.00;;;;;;5;36018679;41273794;-90
2021/08/21 07:55:36;;;;;;;;;;;33.40;58.60;;;;;;5;36018296;41270941;-89
2021/08/21 07:58:50;;;;;;;;;;;34.60;55.10;;;;;;5;36019805;41271656;-93
2021/08/21 08:02:09;;;;;;;;;;;35.70;50.80;;;;;;5;36018773;41270859;-91
2021/08/21 08:05:29;;;;;;;;;;;36.20;48.90;;;;;;5;36020174;41270654;-92
2021/08/21 08:08:49;;;;;;;;;;;37.10;47.60;;;;;;5;36017407;41271842;-90
2021/08/21 08:12:03;;;;;;;;;;;38.00;47.30;;;;;;5;36016862;41271639;-90
2021/08/21 08:15:21;;;;;;;;;;;39.00;44.20;;;;;;5;36017925;41269854;-91
2021/08/21 08:18:40;;;;;;;;;;;39.50;44.20;;;;;;5;36018669;41270422;-91
2021/08/21 08:22:01;;;;;;;;;;;40.30;42.90;;;;;;5;36017447;42021589;-91
2021/08/21 08:25:18;;;;;;;;;;;40.30;43.30;;;;;;5;36020498;41271222;-90
2021/08/21 08:28:36;;;;;;;;;;;41.20;41.60;;;;;;5;36017881;41271596;-90
2021/08/21 08:31:55;;;;;;;;;;;41.80;40.50;;;;;;5;36018235;41270173;-90
2021/08/21 08:35:15;;;;;;;;;;;42.40;40.90;;;;;;5;36017799;41269718;-90
2021/08/21 08:38:29;;;;;;;;;;;43.00;39.50;;;;;;5;36019400;41270591;-90
2021/08/21 08:41:46;;;;;;;;;;;43.30;38.70;;;;;;5;36017141;41269978;-91
2021/08/21 08:45:07;;;;;;;;;;;43.90;37.90;;;;;;5;36017510;41270786;-90
2021/08/21 08:48:29;;;;;;;;;;;43.80;38.60;;;;;;5;36017792;41271112;-91
2021/08/21 08:51:43;;;;;;;;;;;44.10;38.30;;;;;;5;36017708;41270741;-92
2021/08/21 08:55:03;;;;;;;;;;;44.10;37.70;;;;;;5;36015115;42016658;-92
2021/08/21 08:58:22;;;;;;;;;;;44.40;36.60;;;;;;5;36015682;41267852;-91
2021/08/21 09:01:42;;;;;;;;;;;45.30;36.00;;;;;;5;36020848;41271442;-91
2021/08/21 09:05:00;;;;;;;;;;;45.80;35.00;;;;;;5;36017708;41270502;-90
2021/08/21 09:08:28;;;;;;;;;;;46.10;34.80;;;;;;5;36018505;41271506;-91
2021/08/21 09:11:55;;;;;;;;;;;46.30;34.90;;;;;;5;36022121;41271403;-90
2021/08/21 09:15:20;;;;;;;;;;;46.00;35.60;;;;;;5;36021337;41272289;-92
2021/08/21 09:18:34;;;;;;;;;;;46.40;35.00;;;;;;5;36014815;41268622;-91
2021/08/21 09:21:59;;;;;;;;;;;46.60;34.40;;;;;;5;36016072;41267827;-92
2021/08/21 09:25:32;;;;;;;;;;;46.60;34.30;;;;;;5;36013987;41268404;-93
2021/08/21 09:28:54;;;;;;;;;;;46.60;33.80;;;;;;5;36014836;42021697;-91
2021/08/21 09:32:09;;;;;;;;;;;46.90;33.80;;;;;;5;36019067;41270509;-91
2021/08/21 09:35:31;;;;;;;;;;;47.30;33.40;;;;;;5;36016842;41269339;-92
2021/08/21 09:38:55;;;;;;;;;;;47.30;33.60;;;;;;5;36016117;41269555;-92
2021/08/21 09:42:15;;;;;;;;;;;47.30;33.80;;;;;;5;36016922;41271756;-91
2021/08/21 09:45:29;;;;;;;;;;;47.40;33.90;;;;;;5;36018395;41268600;-91
2021/08/21 09:48:53;;;;;;;;;;;47.30;33.00;;;;;;5;36017845;41270655;-91
2021/08/21 09:52:15;;;;;;;;;;;47.80;33.60;;;;;;5;36016316;41272124;-92
2021/08/21 09:55:35;;;;;;;;;;;48.20;32.90;;;;;;5;36019826;41270988;-91
2021/08/21 09:58:52;;;;;;;;;;;48.40;33.30;;;;;;5;36020152;41272215;-92
2021/08/21 10:02:12;;;;;;;;;;;48.90;32.60;;;;;;5;36018690;42020463;-92
2021/08/21 10:05:58;;;;;;;;;;;49.20;32.40;;;;;;5;36017822;41270545;-94
2021/08/21 10:09:19;;;;;;;;;;;49.30;32.10;;;;;;5;36016909;41269649;-94
2021/08/21 10:12:35;;;;;;;;;;;49.50;31.10;;;;;;5;36017543;41268935;-92
2021/08/21 10:15:52;;;;;;;;;;;49.80;31.80;;;;;;5;36016902;41270893;-92
2021/08/21 10:19:12;;;;;;;;;;;49.70;32.00;;;;;;5;36018352;41271193;-90
2021/08/21 10:22:32;;;;;;;;;;;49.90;31.50;;;;;;5;36017724;41270593;-91
2021/08/21 10:25:47;;;;;;;;;;;50.10;31.10;;;;;;5;36016672;41271034;-91
2021/08/21 10:29:09;;;;;;;;;;;49.80;31.40;;;;;;5;36019033;41269328;-92
2021/08/21 10:32:29;;;;;;;;;;;49.90;31.60;;;;;;5;36017658;41271055;-92
2021/08/21 10:35:54;;;;;;;;;;;50.10;30.80;;;;;;5;36021820;42022136;-92
2021/08/21 10:39:16;;;;;;;;;;;50.40;30.30;;;;;;5;36017797;41270736;-91
2021/08/21 10:42:34;;;;;;;;;;;50.40;30.30;;;;;;5;36017195;41271409;-92
2021/08/21 10:45:53;;;;;;;;;;;49.70;30.80;;;;;;5;36016595;41271419;-92
2021/08/21 10:49:15;;;;;;;;;;;49.80;30.80;;;;;;5;36017068;41270806;-92
2021/08/21 10:52:45;;;;;;;;;;;50.20;30.20;;;;;;5;36018416;41271089;-91
2021/08/21 10:56:03;;;;;;;;;;;50.00;29.90;;;;;;5;36016294;41270599;-91
2021/08/21 10:59:42;;;;;;;;;;;50.00;29.50;;;;;;5;36015995;41269865;-92
2021/08/21 11:03:02;;;;;;;;;;;50.00;29.00;;;;;;5;36018515;41271217;-92
2021/08/21 11:06:17;;;;;;;;;;;49.70;29.50;;;;;;5;36017995;41273288;-92
2021/08/21 11:09:35;;;;;;;;;;;49.90;29.60;;;;;;5;36019171;42022949;-92
2021/08/21 11:12:55;;;;;;;;;;;49.80;29.50;;;;;;5;36016109;41268856;-92
2021/08/21 11:16:18;;;;;;;;;;;50.00;29.10;;;;;;5;36017933;41270346;-93
2021/08/21 11:19:35;;;;;;;;;;;49.80;29.10;;;;;;5;36017675;41269091;-92
2021/08/21 11:23:05;;;;;;;;;;;49.60;29.60;;;;;;5;36016110;41269633;-92
2021/08/21 11:26:24;;;;;;;;;;;49.30;29.80;;;;;;5;36017561;41272006;-92
2021/08/21 11:30:03;;;;;;;;;;;49.10;29.80;;;;;;5;36018886;41269649;-91
2021/08/21 11:33:17;;;;;;;;;;;49.20;29.90;;;;;;5;36017937;41271279;-92
2021/08/21 11:36:35;;;;;;;;;;;48.90;30.00;;;;;;5;36017465;41270264;-91
2021/08/21 11:39:55;;;;;;;;;;;49.30;29.90;;;;;;5;36017961;41270071;-91
2021/08/21 11:43:23;;;;;;;;;;;49.10;29.90;;;;;;5;36017613;42020310;-91
2021/08/21 11:46:37;;;;;;;;;;;49.50;29.50;;;;;;5;36018430;41270582;-91
2021/08/21 11:49:54;;;;;;;;;;;49.20;29.80;;;;;;5;36017754;41271288;-91
2021/08/21 11:53:19;;;;;;;;;;;49.20;29.80;;;;;;5;36017423;41269674;-91
2021/08/21 11:57:16;;;;;;;;;;;49.10;29.40;;;;;;5;36015379;41268231;-91
2021/08/21 12:00:32;;;;;;;;;;;49.60;29.50;;;;;;5;36015648;41270253;-91
2021/08/21 12:07:11;;;;;;;;;;;49.50;29.20;;;;;;5;36013793;41266375;-91
2021/08/21 12:10:42;;;;;;;;;;;49.40;29.40;;;;;;5;36016558;41269261;-92
2021/08/21 12:13:59;;;;;;;;;;;49.60;29.10;;;;;;5;36017838;41270098;-91
2021/08/21 12:17:17;;;;;;;;;;;49.70;29.20;;;;;;5;36019321;42019799;-92
2021/08/21 12:20:38;;;;;;;;;;;49.50;28.70;;;;;;5;36016565;41269938;-92
2021/08/21 12:23:58;;;;;;;;;;;48.80;29.20;;;;;;5;36017451;41268941;-94
2021/08/21 12:27:21;;;;;;;;;;;48.50;29.60;;;;;;5;36014770;41267786;-90
2021/08/21 12:30:39;;;;;;;;;;;48.20;30.00;;;;;;5;36015578;41269560;-92
2021/08/21 12:33:58;;;;;;;;;;;48.30;29.60;;;;;;5;36017768;41269301;-91
2021/08/21 12:37:20;;;;;;;;;;;48.20;29.00;;;;;;5;36016499;41269357;-91
2021/08/21 12:40:35;;;;;;;;;;;48.10;30.10;;;;;;5;36017795;41270535;-91
2021/08/21 12:44:05;;;;;;;;;;;47.80;30.00;;;;;;5;36017873;41270239;-91
2021/08/21 12:47:25;;;;;;;;;;;47.50;30.40;;;;;;5;36019392;41269800;-91
2021/08/21 12:50:46;;;;;;;;;;;47.60;30.10;;;;;;5;36016331;42019848;-91
2021/08/21 12:54:06;;;;;;;;;;;47.60;30.40;;;;;;5;36016471;41269576;-92
2021/08/21 12:57:24;;;;;;;;;;;47.40;29.80;;;;;;5;36015439;41270113;-92
2021/08/21 13:00:43;;;;;;;;;;;47.30;30.20;;;;;;5;36017053;41270256;-93
2021/08/21 13:04:10;;;;;;;;;;;47.40;29.90;;;;;;5;36016786;41269855;-92
2021/08/21 13:07:41;;;;;;;;;;;47.30;29.60;;;;;;5;36015980;41269655;-92
2021/08/21 13:10:58;;;;;;;;;;;46.80;30.10;;;;;;5;36016900;41270177;-91
2021/08/21 13:14:18;;;;;;;;;;;45.90;30.00;;;;;;5;36018187;41268741;-91
2021/08/21 13:17:37;;;;;;;;;;;45.70;30.10;;;;;;5;36017136;41268975;-92
2021/08/21 13:20:51;;;;;;;;;;;45.70;30.60;;;;;;5;36017187;41268538;-91
2021/08/21 13:24:10;;;;;;;;;;;45.70;30.10;;;;;;5;36018032;42018889;-91
2021/08/21 13:27:30;;;;;;;;;;;45.40;30.70;;;;;;5;36016706;41269956;-91
2021/08/21 13:30:49;;;;;;;;;;;44.90;30.80;;;;;;5;36016272;41268846;-92
2021/08/21 13:34:09;;;;;;;;;;;44.40;32.00;;;;;;5;36018655;41269415;-92
2021/08/21 13:37:27;;;;;;;;;;;44.20;32.30;;;;;;5;36014562;41268590;-92
2021/08/21 13:40:46;;;;;;;;;;;43.50;33.10;;;;;;5;36015844;41268698;-92
2021/08/21 13:44:06;;;;;;;;;;;43.00;34.30;;;;;;5;36015984;41269459;-91
2021/08/21 13:47:22;;;;;;;;;;;43.10;33.30;;;;;;5;36015816;41269730;-91
2021/08/21 13:50:41;;;;;;;;;;;43.10;33.10;;;;;;5;36015431;41269990;-91
2021/08/21 13:54:01;;;;;;;;;;;42.80;33.60;;;;;;5;36018495;41269594;-92
2021/08/21 13:57:22;;;;;;;;;;;42.20;34.50;;;;;;5;36016074;42019255;-91
2021/08/21 14:00:36;;;;;;;;;;;42.00;34.20;;;;;;5;36016764;41268662;-91
2021/08/21 14:03:56;;;;;;;;;;;41.50;33.50;;;;;;5;36016873;41270766;-91
2021/08/21 14:07:16;;;;;;;;;;;41.40;33.70;;;;;;5;36016077;41269522;-91
2021/08/21 14:10:36;;;;;;;;;;;41.20;34.90;;;;;;5;36015181;41269229;-92
2021/08/21 14:13:50;;;;;;;;;;;41.10;34.60;;;;;;5;36017505;41269680;-92
2021/08/21 14:17:07;;;;;;;;;;;41.10;34.20;;;;;;5;36015754;41269235;-92
2021/08/21 14:20:27;;;;;;;;;;;40.90;34.90;;;;;;5;36015076;41269362;-91
2021/08/21 14:23:46;;;;;;;;;;;40.50;36.00;;;;;;5;36016417;41270109;-91
2021/08/21 14:27:01;;;;;;;;;;;40.50;35.80;;;;;;5;36017730;41269502;-92
2021/08/21 14:30:19;;;;;;;;;;;40.30;37.50;;;;;;5;36016207;42017095;-92
2021/08/21 14:33:40;;;;;;;;;;;40.30;36.20;;;;;;5;36015038;41266485;-92
2021/08/21 14:36:59;;;;;;;;;;;40.00;36.60;;;;;;5;36014366;41268637;-91
2021/08/21 14:40:14;;;;;;;;;;;39.70;37.00;;;;;;5;36014533;41268419;-92
2021/08/21 14:43:31;;;;;;;;;;;39.70;37.40;;;;;;5;36015454;41266770;-92
2021/08/21 14:46:50;;;;;;;;;;;39.20;38.20;;;;;;5;36015076;41268189;-92
2021/08/21 14:50:10;;;;;;;;;;;38.60;37.80;;;;;;5;36016381;41266364;-92
2021/08/21 14:53:24;;;;;;;;;;;38.10;38.70;;;;;;5;36015265;41268976;-91
2021/08/21 14:56:41;;;;;;;;;;;37.70;39.20;;;;;;5;36015125;41267061;-92
2021/08/21 15:00:01;;;;;;;;;;;37.20;40.00;;;;;;5;36015014;41267709;-91
2021/08/21 15:03:22;;;;;;;;;;;36.90;39.90;;;;;;5;36016384;42017168;-92
2021/08/21 15:06:36;;;;;;;;;;;36.70;41.20;;;;;;5;36014452;41267272;-92
2021/08/21 15:09:53;;;;;;;;;;;36.40;41.20;;;;;;5;36014572;41267593;-91
2021/08/21 15:13:14;;;;;;;;;;;36.40;41.60;;;;;;5;36014545;41267411;-91
2021/08/21 15:16:33;;;;;;;;;;;36.10;41.50;;;;;;5;36016306;41269253;-92
2021/08/21 15:19:48;;;;;;;;;;;35.80;41.80;;;;;;5;36017351;41268934;-91
2021/08/21 15:23:05;;;;;;;;;;;35.40;43.10;;;;;;5;36016579;41269346;-91
2021/08/21 15:26:25;;;;;;;;;;;35.30;43.20;;;;;;5;36015171;41269078;-92
2021/08/21 15:29:44;;;;;;;;;;;35.10;43.50;;;;;;5;36016006;41266798;-92
2021/08/21 15:33:01;;;;;;;;;;;35.00;44.10;;;;;;5;36015143;41268281;-92
2021/08/21 15:36:19;;;;;;;;;;;34.80;43.80;;;;;;5;36016384;42021333;-93
2021/08/21 15:39:39;;;;;;;;;;;34.30;44.60;;;;;;5;36017300;41269829;-92
2021/08/21 15:42:58;;;;;;;;;;;34.20;45.40;;;;;;5;36017124;41271253;-93
2021/08/21 15:46:13;;;;;;;;;;;34.00;46.10;;;;;;5;36016674;41267049;-93
2021/08/21 15:49:30;;;;;;;;;;;33.90;46.90;;;;;;5;36015360;41267306;-94
2021/08/21 15:52:49;;;;;;;;;;;33.60;46.00;;;;;;5;36015465;41267120;-93
2021/08/21 15:56:09;;;;;;;;;;;33.40;46.40;;;;;;5;36014960;41266690;-93
2021/08/21 15:59:24;;;;;;;;;;;33.30;48.00;;;;;;5;36015522;41269321;-93
2021/08/21 16:02:42;;;;;;;;;;;33.00;47.40;;;;;;5;36014393;41268274;-93
2021/08/21 16:06:02;;;;;;;;;;;32.80;47.80;;;;;;5;36015486;41267230;-93
2021/08/21 16:09:23;;;;;;;;;;;32.60;48.70;;;;;;5;36016255;42016125;-94
2021/08/21 16:12:37;;;;;;;;;;;32.50;47.80;;;;;;5;36015354;41267133;-93
2021/08/21 16:15:54;;;;;;;;;;;32.30;49.80;;;;;;5;36015611;41267919;-94
2021/08/21 16:19:14;;;;;;;;;;;32.10;49.50;;;;;;5;36014540;41268297;-93
2021/08/21 16:22:34;;;;;;;;;;;31.80;50.20;;;;;;5;36015975;41266471;-93
2021/08/21 16:25:48;;;;;;;;;;;31.60;50.90;;;;;;5;36015337;41266945;-93
2021/08/21 16:29:08;;;;;;;;;;;31.40;51.00;;;;;;5;36013638;41267245;-94
2021/08/21 16:32:27;;;;;;;;;;;31.10;51.10;;;;;;5;36014200;41267925;-93
2021/08/21 16:35:47;;;;;;;;;;;31.00;51.50;;;;;;5;36015126;41267137;-92
2021/08/21 16:39:01;;;;;;;;;;;30.70;52.60;;;;;;5;36014651;41267139;-93
2021/08/21 16:42:20;;;;;;;;;;;30.50;52.70;;;;;;5;36014477;42017433;-93
2021/08/21 16:45:39;;;;;;;;;;;30.40;53.00;;;;;;5;36013959;41267847;-93
2021/08/21 16:48:59;;;;;;;;;;;29.90;53.20;;;;;;5;36016610;41270817;-93
2021/08/21 16:52:14;;;;;;;;;;;29.60;54.40;;;;;;5;36016034;41268498;-93
2021/08/21 16:55:31;;;;;;;;;;;29.40;55.10;;;;;;5;36017489;41271406;-93
2021/08/21 16:58:53;;;;;;;;;;;29.20;56.00;;;;;;5;36018148;41270195;-93
2021/08/21 17:02:12;;;;;;;;;;;28.90;58.40;;;;;;5;36017547;41268978;-93
2021/08/21 17:05:27;;;;;;;;;;;28.70;58.60;;;;;;5;36017595;41269441;-92
2021/08/21 17:08:44;;;;;;;;;;;28.40;58.20;;;;;;5;36015964;41270553;-93
2021/08/21 17:12:03;;;;;;;;;;;28.10;58.80;;;;;;5;36016795;41269755;-92
2021/08/21 17:15:25;;;;;;;;;;;27.90;60.10;;;;;;5;36016638;42017510;-92
2021/08/21 17:18:39;;;;;;;;;;;27.60;59.80;;;;;;5;36016091;41266280;-92
2021/08/21 17:21:56;;;;;;;;;;;27.40;59.70;;;;;;5;36016050;41266212;-92
2021/08/21 17:25:16;;;;;;;;;;;27.20;61.20;;;;;;5;36015758;41267504;-93
2021/08/21 17:28:35;;;;;;;;;;;27.20;61.80;;;;;;5;36017613;41269372;-92
2021/08/21 17:31:49;;;;;;;;;;;27.00;60.60;;;;;;5;36016885;41270563;-91
2021/08/21 17:35:07;;;;;;;;;;;26.80;61.60;;;;;;5;36016835;41269943;-94
2021/08/21 17:38:27;;;;;;;;;;;26.80;61.80;;;;;;5;36017778;41271705;-92
2021/08/21 17:41:47;;;;;;;;;;;26.50;63.70;;;;;;5;36016975;41269166;-93
2021/08/21 17:45:01;;;;;;;;;;;26.40;64.60;;;;;;5;36017764;41270209;-93
2021/08/21 17:48:20;;;;;;;;;;;26.10;65.80;;;;;;5;36017759;42021726;-93
2021/08/21 17:51:39;;;;;;;;;;;25.90;66.20;;;;;;5;36017212;41271265;-94
2021/08/21 17:54:59;;;;;;;;;;;25.80;66.80;;;;;;5;36017689;41270254;-93
2021/08/21 17:58:13;;;;;;;;;;;25.70;66.80;;;;;;5;36017007;41269616;-93
2021/08/21 18:01:31;;;;;;;;;;;25.50;69.00;;;;;;5;36016008;41268879;-93
2021/08/21 18:04:51;;;;;;;;;;;25.30;69.10;;;;;;5;36018041;41269555;-93
2021/08/21 18:08:12;;;;;;;;;;;25.10;69.70;;;;;;5;36017880;41270903;-93
2021/08/21 18:11:27;;;;;;;;;;;24.80;70.90;;;;;;5;36018580;41270073;-92
2021/08/21 18:14:44;;;;;;;;;;;24.80;71.10;;;;;;5;36015091;41270739;-93
2021/08/21 18:18:04;;;;;;;;;;;24.60;72.00;;;;;;5;36017607;41268799;-93
2021/08/21 18:21:28;;;;;;;;;;;24.40;72.20;;;;;;5;36016783;42019347;-92
2021/08/21 18:24:43;;;;;;;;;;;24.20;73.00;;;;;;5;36016958;41270252;-92
2021/08/21 18:28:03;;;;;;;;;;;24.10;73.70;;;;;;5;36015080;41268777;-92
2021/08/21 18:31:25;;;;;;;;;;;23.90;73.70;;;;;;5;36015501;41268003;-93
2021/08/21 18:34:45;;;;;;;;;;;23.80;74.40;;;;;;5;36016077;41268558;-92
2021/08/21 18:37:59;;;;;;;;;;;23.60;76.30;;;;;;5;36016573;41268904;-93
2021/08/21 18:41:16;;;;;;;;;;;23.50;76.60;;;;;;5;36016709;41268874;-94
2021/08/21 18:44:39;;;;;;;;;;;23.30;77.00;;;;;;5;36015229;41269017;-93
2021/08/21 18:47:58;;;;;;;;;;;23.20;77.60;;;;;;5;36014995;41268921;-93
2021/08/21 18:51:12;;;;;;;;;;;23.10;78.20;;;;;;5;36015952;41269143;-93
2021/08/21 18:54:31;;;;;;;;;;;23.00;79.60;;;;;;5;36015862;42019382;-93
2021/08/21 18:57:51;;;;;;;;;;;22.90;80.50;;;;;;5;36015901;41269360;-93
2021/08/21 19:01:14;;;;;;;;;;;22.80;81.80;;;;;;5;36015479;41268597;-93
2021/08/21 19:04:29;;;;;;;;;;;22.80;83.00;;;;;;5;36016653;41270557;-93
2021/08/21 19:07:46;;;;;;;;;;;22.50;83.10;;;;;;5;36015240;41269198;-92
2021/08/21 19:11:11;;;;;;;;;;;22.40;84.90;;;;;;5;36017203;41269019;-93
2021/08/21 19:14:30;;;;;;;;;;;22.20;86.60;;;;;;5;36017693;41269180;-93
2021/08/21 19:17:44;;;;;;;;;;;22.30;88.30;;;;;;5;36016094;41268292;-93
2021/08/21 19:21:02;;;;;;;;;;;22.30;90.70;;;;;;5;36014929;41269266;-93
2021/08/21 19:24:21;;;;;;;;;;;22.10;91.50;;;;;;5;36015658;41269889;-93
2021/08/21 19:27:42;;;;;;;;;;;22.00;92.40;;;;;;5;36014501;42019444;-92
2021/08/21 19:30:59;;;;;;;;;;;21.90;92.80;;;;;;5;36015317;41269611;-91
2021/08/21 19:34:17;;;;;;;;;;;21.90;93.30;;;;;;5;36015142;41269683;-94
2021/08/21 19:37:38;;;;;;;;;;;21.80;92.50;;;;;;5;36016896;41270089;-94
2021/08/21 19:40:58;;;;;;;;;;;21.80;93.70;;;;;;5;36017012;41268629;-93
2021/08/21 19:44:22;;;;;;;;;;;21.70;94.20;;;;;;5;36018032;41269853;-94
2021/08/21 19:47:43;;;;;;;;;;;21.80;94.20;;;;;;5;36015900;41268960;-94
2021/08/21 19:51:03;;;;;;;;;;;21.50;93.80;;;;;;5;36016613;41268983;-93
2021/08/21 19:54:22;;;;;;;;;;;21.70;94.00;;;;;;5;36016786;41269527;-92
2021/08/21 19:57:42;;;;;;;;;;;21.60;94.30;;;;;;5;36017107;41270069;-92
2021/08/21 20:01:03;;;;;;;;;;;21.60;95.20;;;;;;5;36014873;42019607;-93
2021/08/21 20:04:28;;;;;;;;;;;21.50;96.10;;;;;;5;36015834;41270888;-92
2021/08/21 20:07:52;;;;;;;;;;;21.40;96.40;;;;;;5;36015017;41269514;-92
2021/08/21 20:11:09;;;;;;;;;;;21.30;96.70;;;;;;5;36016597;41269447;-92
2021/08/21 20:14:30;;;;;;;;;;;21.30;96.80;;;;;;5;36016544;41268734;-93
2021/08/21 20:17:49;;;;;;;;;;;21.10;97.20;;;;;;5;36017747;41269839;-93
2021/08/21 20:21:09;;;;;;;;;;;21.10;97.40;;;;;;5;36019152;41269567;-93
2021/08/21 20:24:23;;;;;;;;;;;20.90;97.70;;;;;;5;36018956;41270552;-93
2021/08/21 20:27:43;;;;;;;;;;;20.80;98.80;;;;;;5;36015992;41269878;-92
2021/08/21 20:31:05;;;;;;;;;;;20.80;98.40;;;;;;5;36017825;41269831;-92
2021/08/21 20:34:32;;;;;;;;;;;20.70;97.90;;;;;;5;36015371;42018821;-93
2021/08/21 20:37:47;;;;;;;;;;;20.70;98.20;;;;;;5;36016241;41270093;-92
2021/08/21 20:41:09;;;;;;;;;;;20.70;97.80;;;;;;5;36016386;41271064;-92
2021/08/21 20:44:31;;;;;;;;;;;20.70;97.50;;;;;;5;36016807;41268983;-92
2021/08/21 20:47:56;;;;;;;;;;;20.60;97.10;;;;;;5;36015477;41269447;-91
2021/08/21 20:51:10;;;;;;;;;;;20.70;96.90;;;;;;5;36016012;41269917;-94
2021/08/21 20:54:28;;;;;;;;;;;20.60;97.10;;;;;;5;36015897;41270580;-92
2021/08/21 20:57:47;;;;;;;;;;;20.60;96.30;;;;;;5;36017840;41269149;-92
2021/08/21 21:01:07;;;;;;;;;;;20.70;95.80;;;;;;5;36015987;41269899;-92
2021/08/21 21:04:21;;;;;;;;;;;20.80;95.50;;;;;;5;36015777;41270716;-93
2021/08/21 21:07:43;;;;;;;;;;;20.80;95.60;;;;;;5;36017948;42019983;-93
2021/08/21 21:11:05;;;;;;;;;;;20.80;95.20;;;;;;5;36016378;41269091;-93
2021/08/21 21:14:25;;;;;;;;;;;21.20;95.00;;;;;;5;36017840;41267802;-93
2021/08/21 21:17:39;;;;;;;;;;;21.00;94.40;;;;;;5;36016121;41268512;-92
2021/08/21 21:20:56;;;;;;;;;;;21.10;94.10;;;;;;5;36016207;41270462;-92
2021/08/21 21:24:17;;;;;;;;;;;21.40;93.30;;;;;;5;36016647;41270010;-92
2021/08/21 21:27:37;;;;;;;;;;;21.40;91.50;;;;;;5;36015836;41267787;-93
2021/08/21 21:30:51;;;;;;;;;;;21.80;90.40;;;;;;5;36015784;41268103;-93
2021/08/21 21:34:09;;;;;;;;;;;22.10;88.20;;;;;;5;36015327;41269432;-93
